createdAt,value
2017-04-12T00:00:20.621Z,1014.88
2017-04-12T00:01:01.494Z,1014.89
2017-04-12T00:03:00.221Z,1014.84
2017-04-12T00:03:41.099Z,1014.8
2017-04-12T00:04:21.974Z,1014.8
2017-04-12T00:05:02.838Z,1014.78
2017-04-12T00:05:43.718Z,1014.79
2017-04-12T00:06:24.610Z,1014.82
2017-04-12T00:07:05.486Z,1014.77
2017-04-12T00:07:46.364Z,1014.78
2017-04-12T00:08:27.238Z,1014.8
2017-04-12T00:09:08.111Z,1014.78
2017-04-12T00:09:48.986Z,1014.78
2017-04-12T00:10:29.868Z,1014.76
2017-04-12T00:11:10.745Z,1014.77
2017-04-12T00:11:51.621Z,1014.72
2017-04-12T00:12:32.494Z,1014.71
2017-04-12T00:13:13.375Z,1014.72
2017-04-12T00:13:54.257Z,1014.65
2017-04-12T00:14:35.137Z,1014.68
2017-04-12T00:15:16.014Z,1014.66
2017-04-12T00:15:56.885Z,1014.66
2017-04-12T00:16:37.766Z,1014.6
2017-04-12T00:17:18.651Z,1014.59
2017-04-12T00:17:59.530Z,1014.59
2017-04-12T00:18:40.408Z,1014.54
2017-04-12T00:19:21.286Z,1014.54
2017-04-12T00:20:02.169Z,1014.57
2017-04-12T00:20:43.049Z,1014.46
2017-04-12T00:21:23.926Z,1014.51
2017-04-12T00:22:04.794Z,1014.46
2017-04-12T00:22:45.671Z,1014.48
2017-04-12T00:23:26.556Z,1014.45
2017-04-12T00:24:07.442Z,1014.48
2017-04-12T00:24:48.320Z,1014.44
2017-04-12T00:25:29.196Z,1014.45
2017-04-12T00:26:10.071Z,1014.43
2017-04-12T00:26:50.956Z,1014.4
2017-04-12T00:27:31.844Z,1014.45
2017-04-12T00:28:12.732Z,1014.4
2017-04-12T00:28:53.614Z,1014.43
2017-04-12T00:29:34.495Z,1014.41
2017-04-12T00:30:15.372Z,1014.38
2017-04-12T00:30:56.259Z,1014.37
2017-04-12T00:31:37.132Z,1014.36
2017-04-12T00:32:18.010Z,1014.38
2017-04-12T00:32:58.896Z,1014.39
2017-04-12T00:33:39.783Z,1014.34
2017-04-12T00:34:20.654Z,1014.37
2017-04-12T00:35:01.530Z,1014.36
2017-04-12T00:35:42.414Z,1014.36
2017-04-12T00:36:23.298Z,1014.26
2017-04-12T00:37:04.178Z,1014.32
2017-04-12T00:37:45.045Z,1014.26
2017-04-12T00:38:25.916Z,1014.29
2017-04-12T00:39:06.796Z,1014.29
2017-04-12T00:39:47.679Z,1014.29
2017-04-12T00:40:28.566Z,1014.27
2017-04-12T00:41:09.437Z,1014.28
2017-04-12T00:41:50.322Z,1014.25
2017-04-12T00:42:31.201Z,1014.26
2017-04-12T00:43:12.076Z,1014.23
2017-04-12T00:43:52.958Z,1014.17
2017-04-12T00:44:33.840Z,1014.19
2017-04-12T00:45:14.715Z,1014.19
2017-04-12T00:45:55.595Z,1014.17
2017-04-12T00:46:36.489Z,1014.12
2017-04-12T00:47:17.361Z,1014.1
2017-04-12T00:47:58.245Z,1014.11
2017-04-12T00:48:39.125Z,1014.08
2017-04-12T00:49:20.007Z,1014.06
2017-04-12T00:50:00.898Z,1014.04
2017-04-12T00:50:41.778Z,1014.03
2017-04-12T00:51:22.660Z,1014.01
2017-04-12T00:52:03.539Z,1014.01
2017-04-12T00:52:44.407Z,1014.04
2017-04-12T00:53:25.303Z,1013.97
2017-04-12T00:54:06.188Z,1013.94
2017-04-12T00:54:47.072Z,1013.93
2017-04-12T00:55:27.953Z,1013.93
2017-04-12T00:56:08.826Z,1013.96
2017-04-12T00:56:49.701Z,1013.91
2017-04-12T00:57:30.586Z,1013.92
2017-04-12T00:58:11.481Z,1013.9
2017-04-12T00:58:52.356Z,1013.94
2017-04-12T00:59:33.238Z,1013.88
2017-04-12T01:00:14.126Z,1013.87
2017-04-12T01:00:55.015Z,1013.86
2017-04-12T01:01:35.883Z,1013.81
2017-04-12T01:02:16.771Z,1013.86
2017-04-12T01:02:57.657Z,1013.85
2017-04-12T01:03:38.532Z,1013.87
2017-04-12T01:04:19.407Z,1013.87
2017-04-12T01:05:00.278Z,1013.81
2017-04-12T01:05:41.153Z,1013.83
2017-04-12T01:06:22.047Z,1013.8
2017-04-12T01:07:02.942Z,1013.8
2017-04-12T01:07:43.814Z,1013.74
2017-04-12T01:08:24.687Z,1013.81
2017-04-12T01:09:05.582Z,1013.8
2017-04-12T01:09:46.477Z,1013.77
2017-04-12T01:10:27.342Z,1013.79
2017-04-12T01:11:08.217Z,1013.79
2017-04-12T01:11:49.088Z,1013.69
2017-04-12T01:12:29.970Z,1013.72
2017-04-12T01:13:10.849Z,1013.72
2017-04-12T01:13:51.725Z,1013.73
2017-04-12T01:14:32.591Z,1013.73
2017-04-12T01:15:13.465Z,1013.73
2017-04-12T01:15:54.351Z,1013.77
2017-04-12T01:16:35.236Z,1013.76
2017-04-12T01:17:16.115Z,1013.74
2017-04-12T01:17:56.979Z,1013.7
2017-04-12T01:18:37.859Z,1013.72
2017-04-12T01:19:18.747Z,1013.69
2017-04-12T01:19:59.627Z,1013.74
2017-04-12T01:20:40.518Z,1013.69
2017-04-12T01:21:21.376Z,1013.73
2017-04-12T01:22:02.257Z,1013.68
2017-04-12T01:22:43.142Z,1013.7
2017-04-12T01:23:24.017Z,1013.69
2017-04-12T01:24:04.888Z,1013.69
2017-04-12T01:24:45.767Z,1013.69
2017-04-12T01:25:26.638Z,1013.66
2017-04-12T01:26:07.521Z,1013.64
2017-04-12T01:26:48.401Z,1013.67
2017-04-12T01:27:29.274Z,1013.67
2017-04-12T01:28:10.143Z,1013.66
2017-04-12T01:28:51.055Z,1013.62
2017-04-12T01:29:31.898Z,1013.65
2017-04-12T01:30:12.781Z,1013.66
2017-04-12T01:30:53.656Z,1013.63
2017-04-12T01:31:34.532Z,1013.63
2017-04-12T01:32:15.393Z,1013.58
2017-04-12T01:32:56.277Z,1013.65
2017-04-12T01:33:37.154Z,1013.67
2017-04-12T01:34:18.031Z,1013.64
2017-04-12T01:34:58.903Z,1013.63
2017-04-12T01:35:39.783Z,1013.57
2017-04-12T01:36:20.660Z,1013.6
2017-04-12T01:37:01.543Z,1013.54
2017-04-12T01:37:42.437Z,1013.51
2017-04-12T01:38:23.314Z,1013.45
2017-04-12T01:39:04.195Z,1013.49
2017-04-12T01:39:45.078Z,1013.45
2017-04-12T01:40:25.958Z,1013.49
2017-04-12T01:41:06.840Z,1013.49
2017-04-12T01:41:47.721Z,1013.5
2017-04-12T01:42:28.610Z,1013.5
2017-04-12T01:43:09.501Z,1013.48
2017-04-12T01:43:50.383Z,1013.47
2017-04-12T01:44:31.265Z,1013.48
2017-04-12T01:45:12.143Z,1013.41
2017-04-12T01:45:53.030Z,1013.39
2017-04-12T01:46:33.903Z,1013.4
2017-04-12T01:47:14.784Z,1013.43
2017-04-12T01:47:55.661Z,1013.41
2017-04-12T01:48:36.526Z,1013.42
2017-04-12T01:49:17.416Z,1013.37
2017-04-12T01:49:58.294Z,1013.35
2017-04-12T01:50:39.172Z,1013.33
2017-04-12T01:51:20.055Z,1013.35
2017-04-12T01:52:00.942Z,1013.32
2017-04-12T01:52:41.825Z,1013.24
2017-04-12T01:53:22.706Z,1013.27
2017-04-12T01:54:03.624Z,1013.22
2017-04-12T01:54:44.496Z,1013.21
2017-04-12T01:55:25.377Z,1013.18
2017-04-12T01:56:06.259Z,1013.13
2017-04-12T01:56:47.153Z,1013.15
2017-04-12T01:57:28.038Z,1013.16
2017-04-12T01:58:08.914Z,1013.16
2017-04-12T01:58:49.793Z,1013.08
2017-04-12T01:59:30.689Z,1013.11
2017-04-12T02:00:11.560Z,1013.07
2017-04-12T02:00:52.440Z,1013.08
2017-04-12T02:01:33.321Z,1013.12
2017-04-12T02:02:14.198Z,1013.11
2017-04-12T02:02:55.069Z,1013.07
2017-04-12T02:03:35.949Z,1013.06
2017-04-12T02:04:16.824Z,1013.06
2017-04-12T02:04:57.706Z,1013.02
2017-04-12T02:05:38.584Z,1013.01
2017-04-12T02:06:19.469Z,1012.99
2017-04-12T02:07:00.352Z,1013.03
2017-04-12T02:07:41.235Z,1012.97
2017-04-12T02:08:22.112Z,1012.95
2017-04-12T02:09:03.005Z,1012.95
2017-04-12T02:09:43.878Z,1012.94
2017-04-12T02:10:24.758Z,1012.97
2017-04-12T02:11:05.637Z,1012.95
2017-04-12T02:11:46.514Z,1012.95
2017-04-12T02:12:27.386Z,1012.91
2017-04-12T02:13:08.270Z,1012.94
2017-04-12T02:13:49.137Z,1012.92
2017-04-12T02:14:30.010Z,1012.88
2017-04-12T02:15:10.892Z,1012.86
2017-04-12T02:15:51.770Z,1012.84
2017-04-12T02:16:32.716Z,1012.82
2017-04-12T02:17:13.670Z,1012.82
2017-04-12T02:17:54.598Z,1012.79
2017-04-12T02:18:35.474Z,1012.78
2017-04-12T02:19:16.385Z,1012.8
2017-04-12T02:19:57.239Z,1012.82
2017-04-12T02:20:38.182Z,1012.75
2017-04-12T02:21:19.061Z,1012.75
2017-04-12T02:21:59.947Z,1012.73
2017-04-12T02:22:40.826Z,1012.74
2017-04-12T02:23:21.710Z,1012.7
2017-04-12T02:24:02.593Z,1012.69
2017-04-12T02:24:43.474Z,1012.65
2017-04-12T02:25:24.349Z,1012.64
2017-04-12T02:26:05.220Z,1012.65
2017-04-12T02:26:46.100Z,1012.68
2017-04-12T02:27:26.981Z,1012.7
2017-04-12T02:28:07.865Z,1012.63
2017-04-12T02:28:48.745Z,1012.64
2017-04-12T02:29:29.623Z,1012.61
2017-04-12T02:30:10.508Z,1012.63
2017-04-12T02:30:51.389Z,1012.57
2017-04-12T02:31:32.266Z,1012.53
2017-04-12T02:32:13.148Z,1012.56
2017-04-12T02:32:54.026Z,1012.63
2017-04-12T02:33:34.904Z,1012.58
2017-04-12T02:34:15.805Z,1012.56
2017-04-12T02:34:56.713Z,1012.54
2017-04-12T02:35:37.553Z,1012.55
2017-04-12T02:36:18.429Z,1012.51
2017-04-12T02:36:59.304Z,1012.52
2017-04-12T02:37:40.190Z,1012.51
2017-04-12T02:38:21.066Z,1012.46
2017-04-12T02:39:01.944Z,1012.5
2017-04-12T02:39:42.832Z,1012.51
2017-04-12T02:40:23.702Z,1012.48
2017-04-12T02:41:04.595Z,1012.51
2017-04-12T02:41:45.473Z,1012.52
2017-04-12T02:42:26.348Z,1012.55
2017-04-12T02:43:07.224Z,1012.51
2017-04-12T02:43:48.104Z,1012.48
2017-04-12T02:44:28.983Z,1012.48
2017-04-12T02:45:09.869Z,1012.44
2017-04-12T02:45:50.753Z,1012.37
2017-04-12T02:46:31.630Z,1012.45
2017-04-12T02:47:12.507Z,1012.4
2017-04-12T02:47:53.378Z,1012.46
2017-04-12T02:48:34.373Z,1012.4
2017-04-12T02:49:15.478Z,1012.4
2017-04-12T02:49:56.403Z,1012.39
2017-04-12T02:50:37.288Z,1012.35
2017-04-12T02:51:18.171Z,1012.31
2017-04-12T02:51:59.079Z,1012.35
2017-04-12T02:52:39.966Z,1012.35
2017-04-12T02:53:20.846Z,1012.3
2017-04-12T02:54:01.721Z,1012.31
2017-04-12T02:54:42.601Z,1012.36
2017-04-12T02:55:23.484Z,1012.3
2017-04-12T02:56:04.363Z,1012.28
2017-04-12T02:56:45.245Z,1012.29
2017-04-12T02:57:26.128Z,1012.27
2017-04-12T02:58:07.012Z,1012.23
2017-04-12T02:58:47.900Z,1012.21
2017-04-12T02:59:28.776Z,1012.18
2017-04-12T03:00:09.662Z,1012.19
2017-04-12T03:00:50.532Z,1012.16
2017-04-12T03:01:31.414Z,1012.17
2017-04-12T03:02:12.291Z,1012.19
2017-04-12T03:02:53.166Z,1012.14
2017-04-12T03:03:34.054Z,1012.14
2017-04-12T03:04:14.937Z,1012.13
2017-04-12T03:04:55.818Z,1012.17
2017-04-12T03:05:36.698Z,1012.14
2017-04-12T03:06:17.575Z,1012.18
2017-04-12T03:06:58.456Z,1012.14
2017-04-12T03:07:39.336Z,1012.14
2017-04-12T03:08:20.215Z,1012.16
2017-04-12T03:09:01.122Z,1012.12
2017-04-12T03:09:42.008Z,1012.15
2017-04-12T03:10:22.897Z,1012.09
2017-04-12T03:11:03.772Z,1012.12
2017-04-12T03:11:44.649Z,1012.11
2017-04-12T03:12:25.530Z,1012.11
2017-04-12T03:13:06.418Z,1012.13
2017-04-12T03:13:47.303Z,1012.1
2017-04-12T03:14:28.177Z,1012.08
2017-04-12T03:15:09.072Z,1012.09
2017-04-12T03:15:49.950Z,1012.09
2017-04-12T03:16:30.843Z,1012.13
2017-04-12T03:17:11.721Z,1012.16
2017-04-12T03:17:52.606Z,1012.11
2017-04-12T03:18:33.486Z,1012.1
2017-04-12T03:19:14.362Z,1012.08
2017-04-12T03:19:55.222Z,1012.05
2017-04-12T03:20:36.096Z,1012.06
2017-04-12T03:21:16.979Z,1012.03
2017-04-12T03:21:57.858Z,1012.01
2017-04-12T03:22:38.732Z,1012.09
2017-04-12T03:23:19.611Z,1012.03
2017-04-12T03:24:00.501Z,1012.04
2017-04-12T03:24:41.383Z,1012.02
2017-04-12T03:25:22.262Z,1011.98
2017-04-12T03:26:03.144Z,1011.98
2017-04-12T03:26:44.027Z,1011.98
2017-04-12T03:27:24.914Z,1011.97
2017-04-12T03:28:05.806Z,1012.01
2017-04-12T03:28:46.683Z,1012
2017-04-12T03:29:27.563Z,1012
2017-04-12T03:30:08.452Z,1011.94
2017-04-12T03:30:49.337Z,1011.94
2017-04-12T03:31:30.219Z,1011.93
2017-04-12T03:32:11.102Z,1011.9
2017-04-12T03:32:51.986Z,1011.92
2017-04-12T03:33:32.865Z,1011.93
2017-04-12T03:34:13.740Z,1011.91
2017-04-12T03:34:54.610Z,1011.93
2017-04-12T03:35:35.490Z,1011.9
2017-04-12T03:36:16.372Z,1011.84
2017-04-12T03:36:57.250Z,1011.87
2017-04-12T03:37:38.130Z,1011.92
2017-04-12T03:38:19.002Z,1011.86
2017-04-12T03:38:59.889Z,1011.84
2017-04-12T03:39:40.783Z,1011.85
2017-04-12T03:40:21.670Z,1011.77
2017-04-12T03:41:02.547Z,1011.82
2017-04-12T03:41:43.428Z,1011.86
2017-04-12T03:42:24.305Z,1011.79
2017-04-12T03:43:05.195Z,1011.77
2017-04-12T03:43:46.078Z,1011.83
2017-04-12T03:44:26.958Z,1011.86
2017-04-12T03:45:07.843Z,1011.84
2017-04-12T03:45:48.722Z,1011.8
2017-04-12T03:46:30.774Z,1011.82
2017-04-12T03:47:11.131Z,1011.85
2017-04-12T03:47:52.019Z,1011.8
2017-04-12T03:48:32.891Z,1011.83
2017-04-12T03:49:13.775Z,1011.85
2017-04-12T03:49:54.661Z,1011.86
2017-04-12T03:50:35.532Z,1011.85
2017-04-12T03:51:16.416Z,1011.84
2017-04-12T03:51:57.298Z,1011.8
2017-04-12T03:52:38.189Z,1011.82
2017-04-12T03:53:19.065Z,1011.8
2017-04-12T03:53:59.933Z,1011.79
2017-04-12T03:54:40.799Z,1011.78
2017-04-12T03:55:21.666Z,1011.74
2017-04-12T03:56:02.549Z,1011.75
2017-04-12T03:56:43.435Z,1011.76
2017-04-12T03:57:24.315Z,1011.74
2017-04-12T03:58:05.192Z,1011.78
2017-04-12T03:58:46.076Z,1011.78
2017-04-12T03:59:26.957Z,1011.78
2017-04-12T04:00:07.854Z,1011.77
2017-04-12T04:00:48.731Z,1011.82
2017-04-12T04:01:29.617Z,1011.77
2017-04-12T04:02:10.515Z,1011.79
2017-04-12T04:02:51.388Z,1011.71
2017-04-12T04:03:32.267Z,1011.78
2017-04-12T04:04:13.158Z,1011.7
2017-04-12T04:04:54.038Z,1011.74
2017-04-12T04:05:34.918Z,1011.71
2017-04-12T04:06:15.793Z,1011.73
2017-04-12T04:06:56.671Z,1011.71
2017-04-12T04:07:37.552Z,1011.67
2017-04-12T04:08:18.436Z,1011.7
2017-04-12T04:08:59.310Z,1011.68
2017-04-12T04:09:40.189Z,1011.66
2017-04-12T04:10:21.063Z,1011.72
2017-04-12T04:11:01.942Z,1011.77
2017-04-12T04:11:42.833Z,1011.67
2017-04-12T04:12:23.730Z,1011.68
2017-04-12T04:13:04.591Z,1011.65
2017-04-12T04:13:45.475Z,1011.74
2017-04-12T04:14:26.357Z,1011.73
2017-04-12T04:15:07.234Z,1011.66
2017-04-12T04:15:48.112Z,1011.67
2017-04-12T04:16:28.987Z,1011.65
2017-04-12T04:17:09.872Z,1011.6
2017-04-12T04:17:50.763Z,1011.6
2017-04-12T04:18:31.638Z,1011.59
2017-04-12T04:19:12.505Z,1011.61
2017-04-12T04:19:53.398Z,1011.61
2017-04-12T04:20:34.278Z,1011.56
2017-04-12T04:21:15.154Z,1011.58
2017-04-12T04:21:56.030Z,1011.65
2017-04-12T04:22:36.907Z,1011.6
2017-04-12T04:23:17.787Z,1011.64
2017-04-12T04:23:58.670Z,1011.57
2017-04-12T04:24:39.544Z,1011.57
2017-04-12T04:25:20.423Z,1011.57
2017-04-12T04:26:01.307Z,1011.61
2017-04-12T04:26:42.194Z,1011.55
2017-04-12T04:27:23.080Z,1011.57
2017-04-12T04:28:03.972Z,1011.51
2017-04-12T04:28:44.863Z,1011.56
2017-04-12T04:29:25.763Z,1011.52
2017-04-12T04:30:06.617Z,1011.48
2017-04-12T04:30:47.492Z,1011.58
2017-04-12T04:31:28.375Z,1011.47
2017-04-12T04:32:09.262Z,1011.51
2017-04-12T04:32:50.148Z,1011.55
2017-04-12T04:33:31.129Z,1011.49
2017-04-12T04:35:04.338Z,1011.54
2017-04-12T04:35:45.225Z,1011.46
2017-04-12T04:36:26.111Z,1011.45
2017-04-12T04:37:06.989Z,1011.46
2017-04-12T04:37:47.870Z,1011.46
2017-04-12T04:38:28.750Z,1011.42
2017-04-12T04:39:09.632Z,1011.47
2017-04-12T04:39:50.511Z,1011.46
2017-04-12T04:40:31.389Z,1011.45
2017-04-12T04:41:12.287Z,1011.42
2017-04-12T04:41:53.141Z,1011.45
2017-04-12T04:42:34.022Z,1011.46
2017-04-12T04:43:14.905Z,1011.47
2017-04-12T04:43:55.774Z,1011.39
2017-04-12T04:44:36.649Z,1011.38
2017-04-12T04:45:17.531Z,1011.44
2017-04-12T04:45:58.406Z,1011.43
2017-04-12T04:46:39.281Z,1011.43
2017-04-12T04:47:20.159Z,1011.35
2017-04-12T04:48:01.031Z,1011.34
2017-04-12T04:48:41.915Z,1011.32
2017-04-12T04:49:22.792Z,1011.36
2017-04-12T04:50:03.674Z,1011.35
2017-04-12T04:50:44.552Z,1011.4
2017-04-12T04:51:25.431Z,1011.43
2017-04-12T04:52:06.311Z,1011.41
2017-04-12T04:52:47.196Z,1011.38
2017-04-12T04:53:28.072Z,1011.37
2017-04-12T04:54:08.951Z,1011.38
2017-04-12T04:54:49.827Z,1011.36
2017-04-12T04:55:30.718Z,1011.4
2017-04-12T04:56:11.587Z,1011.35
2017-04-12T04:56:52.460Z,1011.37
2017-04-12T04:57:33.333Z,1011.43
2017-04-12T04:58:14.209Z,1011.38
2017-04-12T04:58:55.087Z,1011.36
2017-04-12T04:59:35.968Z,1011.37
2017-04-12T05:00:16.846Z,1011.38
2017-04-12T05:00:57.729Z,1011.36
2017-04-12T05:01:38.597Z,1011.39
2017-04-12T05:02:19.477Z,1011.32
2017-04-12T05:03:00.361Z,1011.33
2017-04-12T05:03:41.244Z,1011.33
2017-04-12T05:04:22.114Z,1011.27
2017-04-12T05:05:02.990Z,1011.32
2017-04-12T05:05:43.866Z,1011.28
2017-04-12T05:06:24.744Z,1011.27
2017-04-12T05:07:05.626Z,1011.29
2017-04-12T05:07:46.506Z,1011.26
2017-04-12T05:08:27.377Z,1011.29
2017-04-12T05:09:08.259Z,1011.26
2017-04-12T05:09:49.145Z,1011.28
2017-04-12T05:10:30.025Z,1011.26
2017-04-12T05:11:10.946Z,1011.24
2017-04-12T05:11:51.827Z,1011.26
2017-04-12T05:12:32.719Z,1011.2
2017-04-12T05:13:13.611Z,1011.23
2017-04-12T05:13:54.492Z,1011.22
2017-04-12T05:14:35.375Z,1011.22
2017-04-12T05:15:16.250Z,1011.2
2017-04-12T05:15:57.113Z,1011.23
2017-04-12T05:16:38.009Z,1011.2
2017-04-12T05:17:18.881Z,1011.17
2017-04-12T05:17:59.762Z,1011.16
2017-04-12T05:18:40.644Z,1011.19
2017-04-12T05:19:21.510Z,1011.17
2017-04-12T05:20:02.393Z,1011.17
2017-04-12T05:20:43.280Z,1011.17
2017-04-12T05:21:24.156Z,1011.17
2017-04-12T05:22:05.035Z,1011.23
2017-04-12T05:22:45.910Z,1011.2
2017-04-12T05:23:26.785Z,1011.21
2017-04-12T05:24:07.670Z,1011.22
2017-04-12T05:24:48.552Z,1011.22
2017-04-12T05:25:29.427Z,1011.23
2017-04-12T05:26:10.284Z,1011.23
2017-04-12T05:26:51.157Z,1011.21
2017-04-12T05:27:32.027Z,1011.2
2017-04-12T05:28:12.910Z,1011.18
2017-04-12T05:28:53.789Z,1011.19
2017-04-12T05:29:34.661Z,1011.18
2017-04-12T05:30:15.531Z,1011.17
2017-04-12T05:30:56.395Z,1011.15
2017-04-12T05:31:37.273Z,1011.13
2017-04-12T05:32:18.176Z,1011.2
2017-04-12T05:32:59.049Z,1011.17
2017-04-12T05:33:39.936Z,1011.2
2017-04-12T05:34:20.810Z,1011.18
2017-04-12T05:35:01.724Z,1011.19
2017-04-12T05:35:42.606Z,1011.19
2017-04-12T05:36:23.533Z,1011.15
2017-04-12T05:37:04.418Z,1011.17
2017-04-12T05:37:45.283Z,1011.15
2017-04-12T05:38:26.166Z,1011.13
2017-04-12T05:39:07.084Z,1011.16
2017-04-12T05:39:47.952Z,1011.16
2017-04-12T05:40:28.826Z,1011.18
2017-04-12T05:41:09.726Z,1011.12
2017-04-12T05:41:50.607Z,1011.08
2017-04-12T05:42:31.487Z,1011.15
2017-04-12T05:43:12.361Z,1011.12
2017-04-12T05:43:53.244Z,1011.16
2017-04-12T05:44:34.121Z,1011.14
2017-04-12T05:45:15.021Z,1011.13
2017-04-12T05:45:55.897Z,1011.11
2017-04-12T05:46:36.773Z,1011.13
2017-04-12T05:47:17.654Z,1011.18
2017-04-12T05:47:58.548Z,1011.12
2017-04-12T05:48:39.423Z,1011.13
2017-04-12T05:49:20.296Z,1011.15
2017-04-12T05:50:01.184Z,1011.11
2017-04-12T05:50:42.069Z,1011.16
2017-04-12T05:51:22.947Z,1011.11
2017-04-12T05:52:03.819Z,1011.03
2017-04-12T05:52:44.699Z,1011.08
2017-04-12T05:53:25.593Z,1011.07
2017-04-12T05:54:06.470Z,1011.11
2017-04-12T05:54:47.348Z,1011.05
2017-04-12T05:55:28.231Z,1011.01
2017-04-12T05:56:09.112Z,1011.02
2017-04-12T05:56:50.046Z,1010.98
2017-04-12T05:57:30.878Z,1011.01
2017-04-12T05:58:11.760Z,1011.02
2017-04-12T05:58:52.685Z,1011.08
2017-04-12T05:59:33.560Z,1011.07
2017-04-12T06:00:14.422Z,1011.03
2017-04-12T06:00:55.297Z,1011.03
2017-04-12T06:01:36.181Z,1011.08
2017-04-12T06:02:17.058Z,1011.09
2017-04-12T06:02:57.936Z,1011.1
2017-04-12T06:03:38.815Z,1011.03
2017-04-12T06:04:19.732Z,1011.08
2017-04-12T06:05:00.609Z,1011.01
2017-04-12T06:05:41.487Z,1011
2017-04-12T06:06:22.357Z,1010.95
2017-04-12T06:07:03.235Z,1010.99
2017-04-12T06:07:44.116Z,1010.98
2017-04-12T06:08:24.990Z,1010.99
2017-04-12T06:09:05.893Z,1010.96
2017-04-12T06:09:46.744Z,1010.96
2017-04-12T06:10:27.630Z,1010.98
2017-04-12T06:11:08.499Z,1010.96
2017-04-12T06:11:49.371Z,1010.96
2017-04-12T06:12:30.254Z,1010.91
2017-04-12T06:13:11.130Z,1010.91
2017-04-12T06:13:52.008Z,1010.96
2017-04-12T06:14:32.924Z,1010.91
2017-04-12T06:15:13.768Z,1010.9
2017-04-12T06:15:54.656Z,1010.89
2017-04-12T06:16:35.521Z,1010.95
2017-04-12T06:17:16.406Z,1010.9
2017-04-12T06:17:57.285Z,1010.96
2017-04-12T06:18:38.164Z,1010.92
2017-04-12T06:19:19.030Z,1010.94
2017-04-12T06:19:59.905Z,1011
2017-04-12T06:20:40.779Z,1010.97
2017-04-12T06:21:21.659Z,1010.92
2017-04-12T06:22:02.540Z,1010.85
2017-04-12T06:22:43.421Z,1010.92
2017-04-12T06:23:24.304Z,1010.85
2017-04-12T06:24:05.192Z,1010.79
2017-04-12T06:24:46.085Z,1010.83
2017-04-12T06:25:26.976Z,1010.8
2017-04-12T06:26:07.856Z,1010.8
2017-04-12T06:26:48.725Z,1010.76
2017-04-12T06:27:29.632Z,1010.74
2017-04-12T06:28:10.512Z,1010.73
2017-04-12T06:28:51.396Z,1010.72
2017-04-12T06:29:32.329Z,1010.73
2017-04-12T06:30:13.194Z,1010.75
2017-04-12T06:30:54.076Z,1010.74
2017-04-12T06:31:34.999Z,1010.73
2017-04-12T06:32:15.835Z,1010.73
2017-04-12T06:32:56.707Z,1010.77
2017-04-12T06:33:37.588Z,1010.69
2017-04-12T06:34:18.509Z,1010.78
2017-04-12T06:34:59.376Z,1010.69
2017-04-12T06:35:40.320Z,1010.68
2017-04-12T06:36:21.125Z,1010.68
2017-04-12T06:37:02.010Z,1010.65
2017-04-12T06:37:42.887Z,1010.61
2017-04-12T06:38:23.756Z,1010.64
2017-04-12T06:39:04.631Z,1010.59
2017-04-12T06:39:45.514Z,1010.58
2017-04-12T06:40:26.432Z,1010.58
2017-04-12T06:41:07.332Z,1010.56
2017-04-12T06:41:48.227Z,1010.57
2017-04-12T06:42:29.088Z,1010.55
2017-04-12T06:43:09.972Z,1010.56
2017-04-12T06:43:50.860Z,1010.53
2017-04-12T06:44:31.746Z,1010.52
2017-04-12T06:45:12.627Z,1010.48
2017-04-12T06:45:53.502Z,1010.56
2017-04-12T06:46:34.387Z,1010.49
2017-04-12T06:47:15.278Z,1010.45
2017-04-12T06:47:56.155Z,1010.48
2017-04-12T06:48:37.031Z,1010.45
2017-04-12T06:49:17.920Z,1010.48
2017-04-12T06:49:58.797Z,1010.49
2017-04-12T06:50:39.678Z,1010.45
2017-04-12T06:51:20.563Z,1010.47
2017-04-12T06:52:01.436Z,1010.43
2017-04-12T06:52:42.320Z,1010.43
2017-04-12T06:53:23.198Z,1010.49
2017-04-12T06:54:04.074Z,1010.43
2017-04-12T06:54:44.965Z,1010.39
2017-04-12T06:55:25.840Z,1010.41
2017-04-12T06:56:06.727Z,1010.39
2017-04-12T06:56:47.608Z,1010.43
2017-04-12T06:57:28.490Z,1010.4
2017-04-12T06:58:09.372Z,1010.35
2017-04-12T06:58:50.254Z,1010.37
2017-04-12T06:59:31.135Z,1010.38
2017-04-12T07:00:12.034Z,1010.37
2017-04-12T07:00:52.923Z,1010.35
2017-04-12T07:01:33.815Z,1010.34
2017-04-12T07:02:14.721Z,1010.32
2017-04-12T07:02:55.605Z,1010.3
2017-04-12T07:03:36.488Z,1010.36
2017-04-12T07:04:17.367Z,1010.34
2017-04-12T07:04:58.245Z,1010.3
2017-04-12T07:05:39.124Z,1010.28
2017-04-12T07:06:20.016Z,1010.31
2017-04-12T07:07:00.902Z,1010.27
2017-04-12T07:07:41.777Z,1010.33
2017-04-12T07:08:22.655Z,1010.32
2017-04-12T07:09:03.535Z,1010.32
2017-04-12T07:09:44.421Z,1010.25
2017-04-12T07:10:25.299Z,1010.19
2017-04-12T07:11:06.197Z,1010.17
2017-04-12T07:11:47.075Z,1010.15
2017-04-12T07:12:27.942Z,1010.07
2017-04-12T07:13:08.821Z,1010.03
2017-04-12T07:13:49.701Z,1010.01
2017-04-12T07:14:30.647Z,1009.94
2017-04-12T07:15:11.532Z,1009.9
2017-04-12T07:15:52.405Z,1009.86
2017-04-12T07:16:33.291Z,1009.81
2017-04-12T07:17:14.167Z,1009.79
2017-04-12T07:17:55.051Z,1009.8
2017-04-12T07:18:35.941Z,1009.91
2017-04-12T07:19:16.830Z,1009.96
2017-04-12T07:19:57.716Z,1010.07
2017-04-12T07:20:38.581Z,1010.13
2017-04-12T07:21:19.473Z,1010.11
2017-04-12T07:22:00.391Z,1010.09
2017-04-12T07:22:41.266Z,1010.09
2017-04-12T07:23:22.148Z,1010.08
2017-04-12T07:24:03.033Z,1010.13
2017-04-12T07:24:43.924Z,1010.01
2017-04-12T07:25:24.802Z,1010.09
2017-04-12T07:26:05.691Z,1010.02
2017-04-12T07:26:46.575Z,1010.07
2017-04-12T07:27:27.487Z,1010.07
2017-04-12T07:28:08.364Z,1009.97
2017-04-12T07:28:49.256Z,1009.99
2017-04-12T07:29:30.123Z,1009.97
2017-04-12T07:30:11.014Z,1009.95
2017-04-12T07:30:51.891Z,1009.9
2017-04-12T07:31:32.781Z,1009.93
2017-04-12T07:32:13.668Z,1009.98
2017-04-12T07:32:54.541Z,1009.96
2017-04-12T07:33:35.425Z,1009.93
2017-04-12T07:34:16.311Z,1009.91
2017-04-12T07:34:57.193Z,1009.96
2017-04-12T07:35:38.062Z,1009.93
2017-04-12T07:36:18.944Z,1009.85
2017-04-12T07:36:59.832Z,1009.79
2017-04-12T07:37:40.711Z,1009.79
2017-04-12T07:38:21.574Z,1009.87
2017-04-12T07:39:02.451Z,1009.89
2017-04-12T07:39:43.316Z,1009.83
2017-04-12T07:40:24.184Z,1009.84
2017-04-12T07:41:05.061Z,1009.84
2017-04-12T07:41:45.944Z,1009.8
2017-04-12T07:42:26.825Z,1009.85
2017-04-12T07:43:07.700Z,1009.86
2017-04-12T07:43:48.584Z,1009.91
2017-04-12T07:44:29.461Z,1009.8
2017-04-12T07:45:10.356Z,1009.84
2017-04-12T07:45:51.233Z,1009.79
2017-04-12T07:46:32.108Z,1009.77
2017-04-12T07:47:12.976Z,1009.79
2017-04-12T07:47:53.845Z,1009.83
2017-04-12T07:48:34.734Z,1009.78
2017-04-12T07:49:15.595Z,1009.81
2017-04-12T07:49:56.472Z,1009.8
2017-04-12T07:50:37.368Z,1009.71
2017-04-12T07:51:18.258Z,1009.74
2017-04-12T07:51:59.143Z,1009.7
2017-04-12T07:52:40.016Z,1009.72
2017-04-12T07:53:20.903Z,1009.68
2017-04-12T07:54:01.799Z,1009.69
2017-04-12T07:54:42.663Z,1009.68
2017-04-12T07:55:23.540Z,1009.63
2017-04-12T07:56:04.419Z,1009.69
2017-04-12T07:56:45.290Z,1009.71
2017-04-12T07:57:26.171Z,1009.76
2017-04-12T07:58:07.044Z,1009.74
2017-04-12T07:58:47.949Z,1009.79
2017-04-12T07:59:28.838Z,1009.71
2017-04-12T08:00:09.722Z,1009.69
2017-04-12T08:00:50.597Z,1009.62
2017-04-12T08:01:31.478Z,1009.61
2017-04-12T08:02:12.348Z,1009.67
2017-04-12T08:02:53.222Z,1009.66
2017-04-12T08:03:34.113Z,1009.65
2017-04-12T08:04:14.991Z,1009.68
2017-04-12T08:04:55.876Z,1009.66
2017-04-12T08:05:36.758Z,1009.66
2017-04-12T08:06:17.662Z,1009.65
2017-04-12T08:06:58.541Z,1009.67
2017-04-12T08:07:39.416Z,1009.65
2017-04-12T08:08:20.294Z,1009.63
2017-04-12T08:09:01.182Z,1009.68
2017-04-12T08:09:42.076Z,1009.65
2017-04-12T08:10:22.959Z,1009.67
2017-04-12T08:11:03.857Z,1009.6
2017-04-12T08:11:44.734Z,1009.65
2017-04-12T08:12:25.610Z,1009.62
2017-04-12T08:13:06.483Z,1009.64
2017-04-12T08:13:47.362Z,1009.58
2017-04-12T08:14:28.251Z,1009.56
2017-04-12T08:15:09.121Z,1009.51
2017-04-12T08:15:49.995Z,1009.53
2017-04-12T08:16:30.879Z,1009.58
2017-04-12T08:17:11.756Z,1009.55
2017-04-12T08:17:52.634Z,1009.53
2017-04-12T08:18:33.511Z,1009.58